Terminal Aerodrome Forecast
Issued by NWS

Home | Current Version | Previous Version | Text Only | Print | Product List | Glossary On
Versions: 1 2 3 4 5 6 7 8 9 10 11 12 13 14 15
142
FTUS44 KBMX 281137
TAFTOI
TAF
KTOI 281137Z 2812/2912 22005KT 5SM BR FEW009 SCT012
      TEMPO 2812/2815 BKN015 BKN025
     FM281500 24008KT P6SM BKN040 PROB30 2823/2903 6SM -TSRA
      BKN025CB
     FM290300 21006KT P6SM VCTS BKN040CB=

USA.gov is the U.S. government's official web portal to all federal, state and local government web resources and services.